sensor_id;sensor_type;location;lat;lon;timestamp;temperature;humidity
18317;DHT22;9284;52.298;21.164;2022-07-05T03:14:32;17.10;99.90
18317;DHT22;9284;52.298;21.164;2022-07-05T03:17:04;17.20;99.90
18317;DHT22;9284;52.298;21.164;2022-07-05T03:19:32;17.10;99.90
18317;DHT22;9284;52.298;21.164;2022-07-05T03:22:01;17.20;99.90
18317;DHT22;9284;52.298;21.164;2022-07-05T03:24:32;17.30;99.90
18317;DHT22;9284;52.298;21.164;2022-07-05T03:27:01;17.30;99.90
18317;DHT22;9284;52.298;21.164;2022-07-05T03:29:32;17.40;99.90
18317;DHT22;9284;52.298;21.164;2022-07-05T03:32:00;17.50;99.90
18317;DHT22;9284;52.298;21.164;2022-07-05T03:34:29;17.60;99.90
18317;DHT22;9284;52.298;21.164;2022-07-05T03:37:00;17.70;99.90
18317;DHT22;9284;52.298;21.164;2022-07-05T03:39:28;17.80;99.90
18317;DHT22;9284;52.298;21.164;2022-07-05T03:41:57;17.80;99.90
18317;DHT22;9284;52.298;21.164;2022-07-05T03:44:29;17.70;99.90
18317;DHT22;9284;52.298;21.164;2022-07-05T03:47:03;17.90;99.90
18317;DHT22;9284;52.298;21.164;2022-07-05T03:49:33;18.00;99.90
18317;DHT22;9284;52.298;21.164;2022-07-05T03:52:02;18.00;99.90
18317;DHT22;9284;52.298;21.164;2022-07-05T03:54:30;18.10;99.90
18317;DHT22;9284;52.298;21.164;2022-07-05T03:57:01;18.30;99.90
18317;DHT22;9284;52.298;21.164;2022-07-05T03:59:29;18.10;99.90
18317;DHT22;9284;52.298;21.164;2022-07-05T04:01:58;18.20;99.90
18317;DHT22;9284;52.298;21.164;2022-07-05T04:04:28;18.20;99.90
18317;DHT22;9284;52.298;21.164;2022-07-05T04:06:57;18.10;99.90
18317;DHT22;9284;52.298;21.164;2022-07-05T04:09:25;18.10;99.90
18317;DHT22;9284;52.298;21.164;2022-07-05T04:11:54;18.10;99.90
18317;DHT22;9284;52.298;21.164;2022-07-05T04:14:23;18.10;99.90
18317;DHT22;9284;52.298;21.164;2022-07-05T04:16:52;18.00;99.90
18317;DHT22;9284;52.298;21.164;2022-07-05T04:19:20;18.10;99.90
18317;DHT22;9284;52.298;21.164;2022-07-05T04:21:50;18.10;99.90
18317;DHT22;9284;52.298;21.164;2022-07-05T04:24:18;18.20;99.90
18317;DHT22;9284;52.298;21.164;2022-07-05T04:26:47;18.00;99.90
18317;DHT22;9284;52.298;21.164;2022-07-05T04:29:16;18.00;99.90
18317;DHT22;9284;52.298;21.164;2022-07-05T04:31:44;18.00;99.90
18317;DHT22;9284;52.298;21.164;2022-07-05T04:34:13;18.10;99.90
18317;DHT22;9284;52.298;21.164;2022-07-05T04:36:43;18.10;99.90
18317;DHT22;9284;52.298;21.164;2022-07-05T04:39:13;18.10;99.90
18317;DHT22;9284;52.298;21.164;2022-07-05T04:41:50;18.20;99.90
18317;DHT22;9284;52.298;21.164;2022-07-05T04:44:19;18.20;99.90
18317;DHT22;9284;52.298;21.164;2022-07-05T04:46:47;18.30;99.90
18317;DHT22;9284;52.298;21.164;2022-07-05T04:49:17;18.40;99.90
18317;DHT22;9284;52.298;21.164;2022-07-05T04:51:45;18.70;99.90
18317;DHT22;9284;52.298;21.164;2022-07-05T04:54:15;18.60;99.90
18317;DHT22;9284;52.298;21.164;2022-07-05T04:56:43;18.80;99.90
18317;DHT22;9284;52.298;21.164;2022-07-05T04:59:11;18.90;99.90
18317;DHT22;9284;52.298;21.164;2022-07-05T05:01:40;18.90;99.90
18317;DHT22;9284;52.298;21.164;2022-07-05T05:04:08;19.00;99.90
18317;DHT22;9284;52.298;21.164;2022-07-05T05:06:36;18.90;99.90
18317;DHT22;9284;52.298;21.164;2022-07-05T05:09:04;19.00;99.90
18317;DHT22;9284;52.298;21.164;2022-07-05T05:11:34;19.20;99.90
18317;DHT22;9284;52.298;21.164;2022-07-05T05:14:02;19.30;99.90
18317;DHT22;9284;52.298;21.164;2022-07-05T05:16:30;19.30;99.90
18317;DHT22;9284;52.298;21.164;2022-07-05T05:18:59;19.40;99.90
18317;DHT22;9284;52.298;21.164;2022-07-05T05:21:27;19.40;99.90
18317;DHT22;9284;52.298;21.164;2022-07-05T05:23:55;19.20;99.90
18317;DHT22;9284;52.298;21.164;2022-07-05T05:26:24;19.30;99.90
18317;DHT22;9284;52.298;21.164;2022-07-05T05:28:53;19.30;99.90
18317;DHT22;9284;52.298;21.164;2022-07-05T05:31:22;19.40;99.90
18317;DHT22;9284;52.298;21.164;2022-07-05T05:33:50;19.40;99.90
18317;DHT22;9284;52.298;21.164;2022-07-05T05:36:18;19.50;99.90
18317;DHT22;9284;52.298;21.164;2022-07-05T05:38:47;19.60;99.90
18317;DHT22;9284;52.298;21.164;2022-07-05T05:41:17;19.50;99.90
18317;DHT22;9284;52.298;21.164;2022-07-05T05:43:48;19.50;99.90
18317;DHT22;9284;52.298;21.164;2022-07-05T05:46:18;19.50;99.90
18317;DHT22;9284;52.298;21.164;2022-07-05T05:48:46;19.60;99.90
18317;DHT22;9284;52.298;21.164;2022-07-05T05:51:15;19.70;99.90
18317;DHT22;9284;52.298;21.164;2022-07-05T05:53:43;19.70;99.90
18317;DHT22;9284;52.298;21.164;2022-07-05T05:56:12;19.80;99.90
18317;DHT22;9284;52.298;21.164;2022-07-05T05:58:41;19.70;99.90
18317;DHT22;9284;52.298;21.164;2022-07-05T06:01:11;20.00;99.90
18317;DHT22;9284;52.298;21.164;2022-07-05T06:03:41;20.10;99.90
18317;DHT22;9284;52.298;21.164;2022-07-05T06:06:10;20.20;99.90
18317;DHT22;9284;52.298;21.164;2022-07-05T06:08:38;20.40;99.90
18317;DHT22;9284;52.298;21.164;2022-07-05T06:11:06;20.40;99.90
18317;DHT22;9284;52.298;21.164;2022-07-05T06:13:35;20.50;99.90
18317;DHT22;9284;52.298;21.164;2022-07-05T06:16:04;20.60;99.90
18317;DHT22;9284;52.298;21.164;2022-07-05T06:18:34;20.80;99.90
18317;DHT22;9284;52.298;21.164;2022-07-05T06:21:06;20.70;99.90
18317;DHT22;9284;52.298;21.164;2022-07-05T06:23:34;20.70;99.90
18317;DHT22;9284;52.298;21.164;2022-07-05T06:26:04;20.90;99.90
18317;DHT22;9284;52.298;21.164;2022-07-05T06:28:35;21.10;99.90
18317;DHT22;9284;52.298;21.164;2022-07-05T06:31:03;21.30;99.90
18317;DHT22;9284;52.298;21.164;2022-07-05T06:33:32;21.90;99.90
18317;DHT22;9284;52.298;21.164;2022-07-05T06:36:00;22.10;99.90
18317;DHT22;9284;52.298;21.164;2022-07-05T06:38:30;22.30;99.90
18317;DHT22;9284;52.298;21.164;2022-07-05T06:40:58;22.70;99.90
18317;DHT22;9284;52.298;21.164;2022-07-05T06:43:26;23.00;99.90
18317;DHT22;9284;52.298;21.164;2022-07-05T06:46:00;22.90;99.90
18317;DHT22;9284;52.298;21.164;2022-07-05T06:48:28;23.30;99.90
18317;DHT22;9284;52.298;21.164;2022-07-05T06:50:57;23.50;99.90
18317;DHT22;9284;52.298;21.164;2022-07-05T06:53:25;23.50;99.90
18317;DHT22;9284;52.298;21.164;2022-07-05T06:55:55;23.80;99.90
18317;DHT22;9284;52.298;21.164;2022-07-05T06:58:24;24.00;99.90
18317;DHT22;9284;52.298;21.164;2022-07-05T07:00:52;24.20;99.90
18317;DHT22;9284;52.298;21.164;2022-07-05T07:03:41;24.50;99.90
18317;DHT22;9284;52.298;21.164;2022-07-05T07:06:29;25.00;99.90
18317;DHT22;9284;52.298;21.164;2022-07-05T07:08:59;25.40;99.90
18317;DHT22;9284;52.298;21.164;2022-07-05T07:11:46;25.90;99.90
18317;DHT22;9284;52.298;21.164;2022-07-05T07:14:16;26.30;99.90
18317;DHT22;9284;52.298;21.164;2022-07-05T07:16:45;26.70;99.90
18317;DHT22;9284;52.298;21.164;2022-07-05T07:19:16;26.60;99.90
18317;DHT22;9284;52.298;21.164;2022-07-05T07:21:44;27.00;99.90
18317;DHT22;9284;52.298;21.164;2022-07-05T07:24:12;27.00;99.90
18317;DHT22;9284;52.298;21.164;2022-07-05T07:26:41;27.70;99.90
18317;DHT22;9284;52.298;21.164;2022-07-05T07:29:28;26.90;99.90
18317;DHT22;9284;52.298;21.164;2022-07-05T07:31:57;26.80;99.90
18317;DHT22;9284;52.298;21.164;2022-07-05T07:34:32;27.40;99.90
18317;DHT22;9284;52.298;21.164;2022-07-05T07:37:01;27.80;99.90
18317;DHT22;9284;52.298;21.164;2022-07-05T07:39:31;27.80;99.90
18317;DHT22;9284;52.298;21.164;2022-07-05T07:42:00;26.50;99.90
18317;DHT22;9284;52.298;21.164;2022-07-05T07:44:44;26.30;99.90
18317;DHT22;9284;52.298;21.164;2022-07-05T07:47:15;26.80;99.90
18317;DHT22;9284;52.298;21.164;2022-07-05T07:49:46;27.70;99.90
18317;DHT22;9284;52.298;21.164;2022-07-05T07:52:17;27.80;99.90
18317;DHT22;9284;52.298;21.164;2022-07-05T07:54:47;29.00;99.90
18317;DHT22;9284;52.298;21.164;2022-07-05T07:57:17;29.40;99.90
18317;DHT22;9284;52.298;21.164;2022-07-05T07:59:47;30.10;99.90
18317;DHT22;9284;52.298;21.164;2022-07-05T08:02:16;29.80;99.30
18317;DHT22;9284;52.298;21.164;2022-07-05T08:04:48;29.90;99.00
18317;DHT22;9284;52.298;21.164;2022-07-05T08:07:17;30.50;99.50
18317;DHT22;9284;52.298;21.164;2022-07-05T08:09:46;30.60;97.90
18317;DHT22;9284;52.298;21.164;2022-07-05T08:12:15;28.30;98.30
18317;DHT22;9284;52.298;21.164;2022-07-05T08:14:43;29.40;99.90
18317;DHT22;9284;52.298;21.164;2022-07-05T08:17:15;29.40;98.20
18317;DHT22;9284;52.298;21.164;2022-07-05T08:19:43;29.50;97.70
18317;DHT22;9284;52.298;21.164;2022-07-05T08:22:31;30.50;97.50
18317;DHT22;9284;52.298;21.164;2022-07-05T08:24:59;29.50;96.60
18317;DHT22;9284;52.298;21.164;2022-07-05T08:27:29;29.50;97.80
18317;DHT22;9284;52.298;21.164;2022-07-05T08:29:57;29.80;96.30
18317;DHT22;9284;52.298;21.164;2022-07-05T08:32:27;30.20;96.50
18317;DHT22;9284;52.298;21.164;2022-07-05T08:34:56;30.20;95.70
18317;DHT22;9284;52.298;21.164;2022-07-05T08:37:24;30.20;95.10
18317;DHT22;9284;52.298;21.164;2022-07-05T08:39:52;30.40;95.30
18317;DHT22;9284;52.298;21.164;2022-07-05T08:42:21;30.40;94.60
18317;DHT22;9284;52.298;21.164;2022-07-05T08:44:51;30.50;94.60
18317;DHT22;9284;52.298;21.164;2022-07-05T08:47:21;30.10;95.10
18317;DHT22;9284;52.298;21.164;2022-07-05T08:49:53;29.60;94.40
18317;DHT22;9284;52.298;21.164;2022-07-05T08:52:22;29.90;94.20
18317;DHT22;9284;52.298;21.164;2022-07-05T08:54:54;30.40;95.20
18317;DHT22;9284;52.298;21.164;2022-07-05T08:57:26;30.10;94.90
18317;DHT22;9284;52.298;21.164;2022-07-05T08:59:55;29.60;94.70
18317;DHT22;9284;52.298;21.164;2022-07-05T09:02:23;29.30;94.10
18317;DHT22;9284;52.298;21.164;2022-07-05T09:04:55;29.50;94.90
18317;DHT22;9284;52.298;21.164;2022-07-05T09:07:26;29.90;94.30
18317;DHT22;9284;52.298;21.164;2022-07-05T09:09:56;30.00;93.60
18317;DHT22;9284;52.298;21.164;2022-07-05T09:12:26;30.50;92.80
18317;DHT22;9284;52.298;21.164;2022-07-05T09:14:55;30.70;91.50
18317;DHT22;9284;52.298;21.164;2022-07-05T09:17:26;30.70;92.90
18317;DHT22;9284;52.298;21.164;2022-07-05T09:20:09;30.60;93.20
18317;DHT22;9284;52.298;21.164;2022-07-05T09:22:45;30.70;92.10
18317;DHT22;9284;52.298;21.164;2022-07-05T09:25:19;29.90;91.80
18317;DHT22;9284;52.298;21.164;2022-07-05T09:27:53;29.30;93.40
18317;DHT22;9284;52.298;21.164;2022-07-05T09:30:33;29.00;93.70
18317;DHT22;9284;52.298;21.164;2022-07-05T09:33:05;28.90;93.30
18317;DHT22;9284;52.298;21.164;2022-07-05T09:35:36;29.40;92.80
18317;DHT22;9284;52.298;21.164;2022-07-05T09:38:05;28.90;93.30
18317;DHT22;9284;52.298;21.164;2022-07-05T09:40:46;28.90;93.00
18317;DHT22;9284;52.298;21.164;2022-07-05T09:43:16;28.40;93.30
18317;DHT22;9284;52.298;21.164;2022-07-05T09:45:54;28.20;94.30
18317;DHT22;9284;52.298;21.164;2022-07-05T09:48:23;28.00;94.90
18317;DHT22;9284;52.298;21.164;2022-07-05T09:51:09;28.20;95.60
18317;DHT22;9284;52.298;21.164;2022-07-05T09:53:59;28.60;94.50
18317;DHT22;9284;52.298;21.164;2022-07-05T09:56:45;28.60;94.30
18317;DHT22;9284;52.298;21.164;2022-07-05T09:59:15;28.40;94.10
18317;DHT22;9284;52.298;21.164;2022-07-05T10:01:48;28.20;94.80
18317;DHT22;9284;52.298;21.164;2022-07-05T10:04:20;27.70;94.50
18317;DHT22;9284;52.298;21.164;2022-07-05T10:06:50;28.00;95.50
18317;DHT22;9284;52.298;21.164;2022-07-05T10:09:20;28.00;95.80
18317;DHT22;9284;52.298;21.164;2022-07-05T10:11:50;27.90;95.40
18317;DHT22;9284;52.298;21.164;2022-07-05T10:14:20;27.30;96.30
18317;DHT22;9284;52.298;21.164;2022-07-05T10:16:56;27.20;96.50
18317;DHT22;9284;52.298;21.164;2022-07-05T10:19:32;27.40;96.80
18317;DHT22;9284;52.298;21.164;2022-07-05T10:22:03;27.20;97.20
18317;DHT22;9284;52.298;21.164;2022-07-05T10:24:44;27.00;97.10
18317;DHT22;9284;52.298;21.164;2022-07-05T10:27:14;26.80;97.20
18317;DHT22;9284;52.298;21.164;2022-07-05T10:29:43;26.80;97.90
18317;DHT22;9284;52.298;21.164;2022-07-05T10:32:11;26.90;97.80
18317;DHT22;9284;52.298;21.164;2022-07-05T10:34:41;26.90;97.10
18317;DHT22;9284;52.298;21.164;2022-07-05T10:37:32;26.90;96.70
18317;DHT22;9284;52.298;21.164;2022-07-05T10:40:04;26.90;99.20
18317;DHT22;9284;52.298;21.164;2022-07-05T10:42:38;27.10;97.60
18317;DHT22;9284;52.298;21.164;2022-07-05T10:45:30;27.00;97.90
18317;DHT22;9284;52.298;21.164;2022-07-05T10:48:15;27.10;98.40
18317;DHT22;9284;52.298;21.164;2022-07-05T10:50:45;27.20;98.40
18317;DHT22;9284;52.298;21.164;2022-07-05T10:53:16;27.10;97.90
18317;DHT22;9284;52.298;21.164;2022-07-05T10:55:50;27.10;98.70
18317;DHT22;9284;52.298;21.164;2022-07-05T10:58:20;27.30;96.80
18317;DHT22;9284;52.298;21.164;2022-07-05T11:04:25;27.50;98.00
18317;DHT22;9284;52.298;21.164;2022-07-05T11:06:57;27.60;98.50
18317;DHT22;9284;52.298;21.164;2022-07-05T11:09:27;27.40;97.60
18317;DHT22;9284;52.298;21.164;2022-07-05T11:12:06;27.40;95.80
18317;DHT22;9284;52.298;21.164;2022-07-05T11:15:04;27.30;97.00
18317;DHT22;9284;52.298;21.164;2022-07-05T11:17:33;27.70;95.90
18317;DHT22;9284;52.298;21.164;2022-07-05T11:20:28;28.00;97.00
18317;DHT22;9284;52.298;21.164;2022-07-05T11:23:08;28.00;96.60
18317;DHT22;9284;52.298;21.164;2022-07-05T11:25:44;28.10;97.40
18317;DHT22;9284;52.298;21.164;2022-07-05T11:28:21;28.20;95.50
18317;DHT22;9284;52.298;21.164;2022-07-05T11:30:54;28.20;96.60
18317;DHT22;9284;52.298;21.164;2022-07-05T11:33:37;28.20;96.10
18317;DHT22;9284;52.298;21.164;2022-07-05T11:36:18;28.10;96.80
18317;DHT22;9284;52.298;21.164;2022-07-05T11:39:09;27.90;96.40
18317;DHT22;9284;52.298;21.164;2022-07-05T11:41:43;27.80;95.50
18317;DHT22;9284;52.298;21.164;2022-07-05T11:44:13;27.80;95.70
18317;DHT22;9284;52.298;21.164;2022-07-05T11:46:44;28.00;96.10
18317;DHT22;9284;52.298;21.164;2022-07-05T11:49:22;28.00;96.40
18317;DHT22;9284;52.298;21.164;2022-07-05T11:51:58;28.10;95.90
18317;DHT22;9284;52.298;21.164;2022-07-05T11:54:28;28.00;96.20
18317;DHT22;9284;52.298;21.164;2022-07-05T11:56:59;28.10;95.80
18317;DHT22;9284;52.298;21.164;2022-07-05T11:59:28;28.10;95.80
18317;DHT22;9284;52.298;21.164;2022-07-05T12:01:57;28.10;96.10
18317;DHT22;9284;52.298;21.164;2022-07-05T12:04:27;27.80;95.90
18317;DHT22;9284;52.298;21.164;2022-07-05T12:06:57;27.70;96.10
18317;DHT22;9284;52.298;21.164;2022-07-05T12:09:27;27.60;95.60
18317;DHT22;9284;52.298;21.164;2022-07-05T12:12:19;27.50;95.80
18317;DHT22;9284;52.298;21.164;2022-07-05T12:15:06;27.70;95.30
18317;DHT22;9284;52.298;21.164;2022-07-05T12:17:35;27.60;96.60
18317;DHT22;9284;52.298;21.164;2022-07-05T12:20:05;27.40;96.50
18317;DHT22;9284;52.298;21.164;2022-07-05T12:22:34;27.30;96.30
18317;DHT22;9284;52.298;21.164;2022-07-05T12:25:04;27.30;96.20
18317;DHT22;9284;52.298;21.164;2022-07-05T12:27:36;27.10;96.20
18317;DHT22;9284;52.298;21.164;2022-07-05T12:30:06;27.00;96.60
18317;DHT22;9284;52.298;21.164;2022-07-05T12:32:55;27.00;96.90
18317;DHT22;9284;52.298;21.164;2022-07-05T12:35:33;27.20;98.20
18317;DHT22;9284;52.298;21.164;2022-07-05T12:38:07;27.30;98.20
18317;DHT22;9284;52.298;21.164;2022-07-05T12:40:37;27.40;98.20
18317;DHT22;9284;52.298;21.164;2022-07-05T12:43:09;27.50;96.70
18317;DHT22;9284;52.298;21.164;2022-07-05T12:45:38;27.20;96.80
18317;DHT22;9284;52.298;21.164;2022-07-05T12:48:10;27.00;96.90
18317;DHT22;9284;52.298;21.164;2022-07-05T12:50:50;27.00;96.80
18317;DHT22;9284;52.298;21.164;2022-07-05T12:53:46;27.10;97.10
18317;DHT22;9284;52.298;21.164;2022-07-05T12:56:32;26.90;97.70
18317;DHT22;9284;52.298;21.164;2022-07-05T12:59:39;26.70;98.00
18317;DHT22;9284;52.298;21.164;2022-07-05T13:02:09;26.80;97.30
18317;DHT22;9284;52.298;21.164;2022-07-05T13:04:52;26.50;97.10
18317;DHT22;9284;52.298;21.164;2022-07-05T13:07:25;26.40;98.00
18317;DHT22;9284;52.298;21.164;2022-07-05T13:10:17;26.20;98.10
18317;DHT22;9284;52.298;21.164;2022-07-05T13:12:46;25.80;98.50
18317;DHT22;9284;52.298;21.164;2022-07-05T13:15:16;25.60;98.40
18317;DHT22;9284;52.298;21.164;2022-07-05T13:17:46;25.50;99.60
18317;DHT22;9284;52.298;21.164;2022-07-05T13:20:15;25.40;99.90
18317;DHT22;9284;52.298;21.164;2022-07-05T13:22:45;25.10;99.90
18317;DHT22;9284;52.298;21.164;2022-07-05T13:25:14;25.00;99.90
18317;DHT22;9284;52.298;21.164;2022-07-05T13:27:42;24.90;99.90
18317;DHT22;9284;52.298;21.164;2022-07-05T13:30:12;24.80;99.90
18317;DHT22;9284;52.298;21.164;2022-07-05T13:32:42;24.80;99.90
18317;DHT22;9284;52.298;21.164;2022-07-05T13:35:10;24.80;99.90
18317;DHT22;9284;52.298;21.164;2022-07-05T13:37:38;24.70;99.90
18317;DHT22;9284;52.298;21.164;2022-07-05T13:40:07;24.60;99.90
18317;DHT22;9284;52.298;21.164;2022-07-05T13:42:36;24.50;99.90
18317;DHT22;9284;52.298;21.164;2022-07-05T13:45:05;24.40;99.90
18317;DHT22;9284;52.298;21.164;2022-07-05T13:47:33;24.30;99.90
18317;DHT22;9284;52.298;21.164;2022-07-05T13:50:03;24.20;99.90
18317;DHT22;9284;52.298;21.164;2022-07-05T13:52:49;24.10;99.90
18317;DHT22;9284;52.298;21.164;2022-07-05T13:55:17;24.00;99.90
18317;DHT22;9284;52.298;21.164;2022-07-05T13:57:45;24.00;99.90
18317;DHT22;9284;52.298;21.164;2022-07-05T14:00:14;23.80;99.10
18317;DHT22;9284;52.298;21.164;2022-07-05T14:02:43;23.80;99.30
18317;DHT22;9284;52.298;21.164;2022-07-05T14:05:12;23.70;99.80
18317;DHT22;9284;52.298;21.164;2022-07-05T14:07:43;23.70;99.90
18317;DHT22;9284;52.298;21.164;2022-07-05T14:10:12;23.70;99.90
18317;DHT22;9284;52.298;21.164;2022-07-05T14:12:40;23.60;99.90
18317;DHT22;9284;52.298;21.164;2022-07-05T14:15:09;23.60;99.90
18317;DHT22;9284;52.298;21.164;2022-07-05T14:17:37;23.60;99.90
18317;DHT22;9284;52.298;21.164;2022-07-05T14:20:07;23.50;99.90
18317;DHT22;9284;52.298;21.164;2022-07-05T14:22:37;23.30;99.90
18317;DHT22;9284;52.298;21.164;2022-07-05T14:25:05;23.00;99.90
18317;DHT22;9284;52.298;21.164;2022-07-05T14:27:33;22.70;99.90
18317;DHT22;9284;52.298;21.164;2022-07-05T14:30:02;22.50;99.90
18317;DHT22;9284;52.298;21.164;2022-07-05T14:32:30;22.20;99.90
18317;DHT22;9284;52.298;21.164;2022-07-05T14:34:59;22.00;99.90
18317;DHT22;9284;52.298;21.164;2022-07-05T14:37:27;21.70;99.90
18317;DHT22;9284;52.298;21.164;2022-07-05T14:39:56;21.50;99.90
18317;DHT22;9284;52.298;21.164;2022-07-05T14:42:25;21.30;99.90
18317;DHT22;9284;52.298;21.164;2022-07-05T14:44:53;20.70;99.90
18317;DHT22;9284;52.298;21.164;2022-07-05T14:47:21;20.20;99.90
18317;DHT22;9284;52.298;21.164;2022-07-05T14:49:53;19.80;99.90
18317;DHT22;9284;52.298;21.164;2022-07-05T14:52:22;19.70;99.90
18317;DHT22;9284;52.298;21.164;2022-07-05T14:54:50;19.50;99.90
18317;DHT22;9284;52.298;21.164;2022-07-05T14:57:19;19.50;99.90
18317;DHT22;9284;52.298;21.164;2022-07-05T14:59:48;19.50;99.90
18317;DHT22;9284;52.298;21.164;2022-07-05T15:02:16;19.40;99.90
18317;DHT22;9284;52.298;21.164;2022-07-05T15:04:44;19.60;99.90
18317;DHT22;9284;52.298;21.164;2022-07-05T15:07:13;19.40;99.90
18317;DHT22;9284;52.298;21.164;2022-07-05T15:09:41;19.30;99.90
18317;DHT22;9284;52.298;21.164;2022-07-05T15:12:09;19.30;99.90
18317;DHT22;9284;52.298;21.164;2022-07-05T15:14:39;19.30;99.90
18317;DHT22;9284;52.298;21.164;2022-07-05T15:17:07;19.50;99.90
18317;DHT22;9284;52.298;21.164;2022-07-05T15:19:35;19.50;99.90
18317;DHT22;9284;52.298;21.164;2022-07-05T15:22:06;19.40;99.90
18317;DHT22;9284;52.298;21.164;2022-07-05T15:24:34;19.10;99.90
18317;DHT22;9284;52.298;21.164;2022-07-05T15:27:03;18.80;99.90
18317;DHT22;9284;52.298;21.164;2022-07-05T15:29:46;18.60;99.90
18317;DHT22;9284;52.298;21.164;2022-07-05T15:32:14;18.40;99.90
18317;DHT22;9284;52.298;21.164;2022-07-05T15:34:42;18.40;99.90
18317;DHT22;9284;52.298;21.164;2022-07-05T15:37:10;18.20;99.90
18317;DHT22;9284;52.298;21.164;2022-07-05T15:39:38;18.10;99.90
18317;DHT22;9284;52.298;21.164;2022-07-05T15:42:07;17.90;99.90
18317;DHT22;9284;52.298;21.164;2022-07-05T15:44:35;17.80;99.90
18317;DHT22;9284;52.298;21.164;2022-07-05T15:47:05;17.80;99.90
18317;DHT22;9284;52.298;21.164;2022-07-05T15:49:37;17.70;99.90
18317;DHT22;9284;52.298;21.164;2022-07-05T15:52:06;17.80;99.90
18317;DHT22;9284;52.298;21.164;2022-07-05T15:54:35;17.60;99.90
18317;DHT22;9284;52.298;21.164;2022-07-05T15:57:04;17.60;99.90
18317;DHT22;9284;52.298;21.164;2022-07-05T15:59:32;17.40;99.90
18317;DHT22;9284;52.298;21.164;2022-07-05T16:02:00;17.30;99.90
18317;DHT22;9284;52.298;21.164;2022-07-05T16:04:30;17.20;99.90
18317;DHT22;9284;52.298;21.164;2022-07-05T16:06:59;17.20;99.90
18317;DHT22;9284;52.298;21.164;2022-07-05T16:09:28;17.20;99.90
18317;DHT22;9284;52.298;21.164;2022-07-05T16:11:56;17.10;99.90
18317;DHT22;9284;52.298;21.164;2022-07-05T16:14:25;17.10;99.90
18317;DHT22;9284;52.298;21.164;2022-07-05T16:16:53;17.10;99.90
18317;DHT22;9284;52.298;21.164;2022-07-05T16:19:22;17.20;99.90
18317;DHT22;9284;52.298;21.164;2022-07-05T16:21:52;17.20;99.90
18317;DHT22;9284;52.298;21.164;2022-07-05T16:24:20;17.20;99.90
18317;DHT22;9284;52.298;21.164;2022-07-05T16:26:52;17.10;99.90
18317;DHT22;9284;52.298;21.164;2022-07-05T16:29:26;17.20;99.90
18317;DHT22;9284;52.298;21.164;2022-07-05T16:32:00;17.10;99.90
18317;DHT22;9284;52.298;21.164;2022-07-05T16:34:30;17.00;99.90
18317;DHT22;9284;52.298;21.164;2022-07-05T16:37:01;17.20;99.90
18317;DHT22;9284;52.298;21.164;2022-07-05T16:39:36;17.00;99.90
18317;DHT22;9284;52.298;21.164;2022-07-05T16:42:05;16.90;99.90
18317;DHT22;9284;52.298;21.164;2022-07-05T16:44:33;16.90;99.90
18317;DHT22;9284;52.298;21.164;2022-07-05T16:47:05;16.90;99.90
18317;DHT22;9284;52.298;21.164;2022-07-05T16:49:38;16.90;99.90
18317;DHT22;9284;52.298;21.164;2022-07-05T16:52:14;16.80;99.90
18317;DHT22;9284;52.298;21.164;2022-07-05T16:54:43;16.70;99.90
18317;DHT22;9284;52.298;21.164;2022-07-05T16:57:15;16.70;99.90
18317;DHT22;9284;52.298;21.164;2022-07-05T16:59:47;16.70;99.90
18317;DHT22;9284;52.298;21.164;2022-07-05T17:02:15;16.70;99.90
18317;DHT22;9284;52.298;21.164;2022-07-05T17:04:44;16.70;99.90
18317;DHT22;9284;52.298;21.164;2022-07-05T17:07:14;16.70;99.90
18317;DHT22;9284;52.298;21.164;2022-07-05T17:09:42;16.70;99.90
18317;DHT22;9284;52.298;21.164;2022-07-05T17:12:12;16.70;99.90
18317;DHT22;9284;52.298;21.164;2022-07-05T17:14:42;16.80;99.90
18317;DHT22;9284;52.298;21.164;2022-07-05T17:17:10;16.60;99.90
18317;DHT22;9284;52.298;21.164;2022-07-05T17:19:39;16.90;99.90
18317;DHT22;9284;52.298;21.164;2022-07-05T17:22:07;16.60;99.90
18317;DHT22;9284;52.298;21.164;2022-07-05T17:24:37;16.60;99.90
18317;DHT22;9284;52.298;21.164;2022-07-05T17:27:07;16.60;99.90
18317;DHT22;9284;52.298;21.164;2022-07-05T17:29:35;16.60;99.90
18317;DHT22;9284;52.298;21.164;2022-07-05T17:32:04;16.60;99.90
18317;DHT22;9284;52.298;21.164;2022-07-05T17:34:33;16.70;99.90
18317;DHT22;9284;52.298;21.164;2022-07-05T17:37:02;16.60;99.90
18317;DHT22;9284;52.298;21.164;2022-07-05T17:39:34;16.60;99.90
18317;DHT22;9284;52.298;21.164;2022-07-05T17:42:07;16.60;99.90
18317;DHT22;9284;52.298;21.164;2022-07-05T17:44:36;16.60;99.90
18317;DHT22;9284;52.298;21.164;2022-07-05T17:47:05;16.80;99.90
18317;DHT22;9284;52.298;21.164;2022-07-05T17:49:36;16.70;99.90
18317;DHT22;9284;52.298;21.164;2022-07-05T17:52:05;16.80;99.90
18317;DHT22;9284;52.298;21.164;2022-07-05T17:54:38;16.80;99.90
18317;DHT22;9284;52.298;21.164;2022-07-05T17:57:08;16.80;99.90
18317;DHT22;9284;52.298;21.164;2022-07-05T17:59:37;16.50;99.90
18317;DHT22;9284;52.298;21.164;2022-07-05T18:02:06;16.70;99.90
18317;DHT22;9284;52.298;21.164;2022-07-05T18:04:34;16.70;99.90
18317;DHT22;9284;52.298;21.164;2022-07-05T18:07:03;16.70;99.90
18317;DHT22;9284;52.298;21.164;2022-07-05T18:09:41;16.80;99.90
18317;DHT22;9284;52.298;21.164;2022-07-05T18:12:11;16.80;99.90
18317;DHT22;9284;52.298;21.164;2022-07-05T18:14:39;16.80;99.90
18317;DHT22;9284;52.298;21.164;2022-07-05T18:17:12;16.70;99.90
18317;DHT22;9284;52.298;21.164;2022-07-05T18:19:46;16.70;99.90
18317;DHT22;9284;52.298;21.164;2022-07-05T18:22:14;16.70;99.90
18317;DHT22;9284;52.298;21.164;2022-07-05T18:24:44;16.80;99.90
18317;DHT22;9284;52.298;21.164;2022-07-05T18:27:21;16.70;99.90
18317;DHT22;9284;52.298;21.164;2022-07-05T18:29:50;17.00;99.90
18317;DHT22;9284;52.298;21.164;2022-07-05T18:32:19;16.70;99.90
18317;DHT22;9284;52.298;21.164;2022-07-05T18:34:49;16.60;99.90
18317;DHT22;9284;52.298;21.164;2022-07-05T18:37:18;16.60;99.90
18317;DHT22;9284;52.298;21.164;2022-07-05T18:39:47;16.50;99.90
18317;DHT22;9284;52.298;21.164;2022-07-05T18:42:18;16.60;99.90
18317;DHT22;9284;52.298;21.164;2022-07-05T18:44:46;16.60;99.90
18317;DHT22;9284;52.298;21.164;2022-07-05T18:47:20;16.50;99.90
18317;DHT22;9284;52.298;21.164;2022-07-05T18:49:51;16.40;99.90
18317;DHT22;9284;52.298;21.164;2022-07-05T18:52:19;16.50;99.90
18317;DHT22;9284;52.298;21.164;2022-07-05T18:54:50;16.50;99.90
18317;DHT22;9284;52.298;21.164;2022-07-05T18:57:24;16.50;99.90
18317;DHT22;9284;52.298;21.164;2022-07-05T18:59:52;16.40;99.90
18317;DHT22;9284;52.298;21.164;2022-07-05T19:02:21;16.40;99.90
18317;DHT22;9284;52.298;21.164;2022-07-05T19:04:49;16.40;99.90
18317;DHT22;9284;52.298;21.164;2022-07-05T19:07:18;16.40;99.90
18317;DHT22;9284;52.298;21.164;2022-07-05T19:10:06;16.40;99.90
18317;DHT22;9284;52.298;21.164;2022-07-05T19:12:57;16.40;99.90